sensor_id;sensor_type;location;lat;lon;timestamp;pressure;altitude;pressure_sealevel;temperature;humidity
49102;BME280;34913;47.520;19.186;2023-04-27T00:00:24;100056.63;;;3.42;77.40
49102;BME280;34913;47.520;19.186;2023-04-27T00:02:50;100065.09;;;3.47;76.58
49102;BME280;34913;47.520;19.186;2023-04-27T00:05:15;100060.94;;;3.43;76.21
49102;BME280;34913;47.520;19.186;2023-04-27T00:07:42;100058.34;;;3.25;76.98
49102;BME280;34913;47.520;19.186;2023-04-27T00:10:08;100059.34;;;3.23;77.52
49102;BME280;34913;47.520;19.186;2023-04-27T00:12:33;100057.56;;;3.23;76.78
49102;BME280;34913;47.520;19.186;2023-04-27T00:14:59;100064.53;;;3.24;76.92
49102;BME280;34913;47.520;19.186;2023-04-27T00:17:25;100060.97;;;3.25;77.55
49102;BME280;34913;47.520;19.186;2023-04-27T00:19:50;100063.34;;;3.30;77.77
49102;BME280;34913;47.520;19.186;2023-04-27T00:22:16;100066.13;;;3.27;76.48
49102;BME280;34913;47.520;19.186;2023-04-27T00:24:42;100073.09;;;3.11;77.68
49102;BME280;34913;47.520;19.186;2023-04-27T00:27:08;100069.38;;;2.97;78.56
49102;BME280;34913;47.520;19.186;2023-04-27T00:29:33;100072.25;;;2.93;79.02
49102;BME280;34913;47.520;19.186;2023-04-27T00:31:58;100062.91;;;2.87;79.06
49102;BME280;34913;47.520;19.186;2023-04-27T00:34:24;100070.00;;;2.85;79.33
49102;BME280;34913;47.520;19.186;2023-04-27T00:36:50;100068.91;;;2.89;79.48
49102;BME280;34913;47.520;19.186;2023-04-27T00:39:16;100068.91;;;3.06;79.19
49102;BME280;34913;47.520;19.186;2023-04-27T00:41:41;100071.69;;;3.21;78.18
49102;BME280;34913;47.520;19.186;2023-04-27T00:44:07;100069.06;;;3.21;77.68
49102;BME280;34913;47.520;19.186;2023-04-27T00:46:32;100063.06;;;3.19;78.08
49102;BME280;34913;47.520;19.186;2023-04-27T00:48:59;100068.13;;;3.22;77.96
49102;BME280;34913;47.520;19.186;2023-04-27T00:51:25;100067.28;;;3.21;78.26
49102;BME280;34913;47.520;19.186;2023-04-27T00:53:56;100067.66;;;3.14;77.47
49102;BME280;34913;47.520;19.186;2023-04-27T00:56:21;100070.84;;;3.03;77.84
49102;BME280;34913;47.520;19.186;2023-04-27T00:58:47;100068.38;;;3.00;78.72
49102;BME280;34913;47.520;19.186;2023-04-27T01:01:13;100063.06;;;3.01;78.02
49102;BME280;34913;47.520;19.186;2023-04-27T01:03:38;100065.75;;;3.00;78.19
49102;BME280;34913;47.520;19.186;2023-04-27T01:06:04;100065.69;;;3.01;78.31
49102;BME280;34913;47.520;19.186;2023-04-27T01:08:29;100065.53;;;3.04;77.88
49102;BME280;34913;47.520;19.186;2023-04-27T01:10:55;100063.44;;;3.11;78.14
49102;BME280;34913;47.520;19.186;2023-04-27T01:13:21;100066.28;;;3.24;77.52
49102;BME280;34913;47.520;19.186;2023-04-27T01:15:46;100066.22;;;3.25;76.94
49102;BME280;34913;47.520;19.186;2023-04-27T01:18:12;100068.00;;;3.25;76.69
49102;BME280;34913;47.520;19.186;2023-04-27T01:20:38;100080.41;;;3.21;76.76
49102;BME280;34913;47.520;19.186;2023-04-27T01:23:03;100073.84;;;3.13;77.27
49102;BME280;34913;47.520;19.186;2023-04-27T01:25:29;100068.59;;;3.13;78.31
49102;BME280;34913;47.520;19.186;2023-04-27T01:27:54;100073.00;;;3.12;77.75
49102;BME280;34913;47.520;19.186;2023-04-27T01:30:20;100080.78;;;3.14;77.63
49102;BME280;34913;47.520;19.186;2023-04-27T01:32:49;100067.94;;;3.09;77.85
49102;BME280;34913;47.520;19.186;2023-04-27T01:35:15;100078.16;;;3.14;78.27
49102;BME280;34913;47.520;19.186;2023-04-27T01:37:40;100074.88;;;3.10;78.82
49102;BME280;34913;47.520;19.186;2023-04-27T01:40:07;100079.09;;;3.13;78.04
49102;BME280;34913;47.520;19.186;2023-04-27T01:42:32;100078.16;;;3.14;78.00
49102;BME280;34913;47.520;19.186;2023-04-27T01:44:58;100080.69;;;3.15;78.42
49102;BME280;34913;47.520;19.186;2023-04-27T01:47:25;100078.78;;;3.19;78.03
49102;BME280;34913;47.520;19.186;2023-04-27T01:49:51;100080.56;;;3.18;78.20
49102;BME280;34913;47.520;19.186;2023-04-27T01:52:16;100071.22;;;3.13;77.84
49102;BME280;34913;47.520;19.186;2023-04-27T01:54:42;100073.69;;;3.16;78.33
49102;BME280;34913;47.520;19.186;2023-04-27T01:57:07;100079.09;;;3.13;78.53
49102;BME280;34913;47.520;19.186;2023-04-27T01:59:32;100084.03;;;3.19;78.46
49102;BME280;34913;47.520;19.186;2023-04-27T02:01:58;100084.50;;;3.27;78.61
49102;BME280;34913;47.520;19.186;2023-04-27T02:04:23;100086.19;;;3.28;78.65
49102;BME280;34913;47.520;19.186;2023-04-27T02:06:49;100086.50;;;3.22;77.40
49102;BME280;34913;47.520;19.186;2023-04-27T02:09:15;100091.34;;;3.12;76.98
49102;BME280;34913;47.520;19.186;2023-04-27T02:11:40;100089.50;;;2.97;78.07
49102;BME280;34913;47.520;19.186;2023-04-27T02:14:06;100097.44;;;2.78;78.73
49102;BME280;34913;47.520;19.186;2023-04-27T02:16:31;100093.31;;;2.55;80.02
49102;BME280;34913;47.520;19.186;2023-04-27T02:18:57;100095.94;;;2.36;81.07
49102;BME280;34913;47.520;19.186;2023-04-27T02:21:23;100094.75;;;2.24;81.83
49102;BME280;34913;47.520;19.186;2023-04-27T02:23:48;100091.72;;;2.15;82.41
49102;BME280;34913;47.520;19.186;2023-04-27T02:26:17;100097.09;;;2.12;82.75
49102;BME280;34913;47.520;19.186;2023-04-27T02:28:45;100100.72;;;2.09;82.96
49102;BME280;34913;47.520;19.186;2023-04-27T02:31:12;100101.81;;;2.04;83.17
49102;BME280;34913;47.520;19.186;2023-04-27T02:33:38;100102.91;;;2.00;83.37
49102;BME280;34913;47.520;19.186;2023-04-27T02:36:03;100102.31;;;1.93;83.78
49102;BME280;34913;47.520;19.186;2023-04-27T02:38:29;100110.59;;;1.84;84.52
49102;BME280;34913;47.520;19.186;2023-04-27T02:40:54;100116.19;;;1.76;84.98
49102;BME280;34913;47.520;19.186;2023-04-27T02:43:21;100113.69;;;1.73;85.53
49102;BME280;34913;47.520;19.186;2023-04-27T02:45:46;100115.41;;;1.74;85.42
49102;BME280;34913;47.520;19.186;2023-04-27T02:48:12;100114.25;;;1.80;85.30
49102;BME280;34913;47.520;19.186;2023-04-27T02:50:41;100108.84;;;1.84;84.90
49102;BME280;34913;47.520;19.186;2023-04-27T02:53:07;100111.72;;;1.97;84.62
49102;BME280;34913;47.520;19.186;2023-04-27T02:55:33;100114.38;;;2.16;83.84
49102;BME280;34913;47.520;19.186;2023-04-27T02:57:58;100117.25;;;2.29;82.73
49102;BME280;34913;47.520;19.186;2023-04-27T03:00:24;100120.31;;;2.38;81.83
49102;BME280;34913;47.520;19.186;2023-04-27T03:02:50;100115.25;;;2.52;81.58
49102;BME280;34913;47.520;19.186;2023-04-27T03:05:16;100126.59;;;2.53;80.15
49102;BME280;34913;47.520;19.186;2023-04-27T03:07:42;100132.75;;;2.52;80.06
49102;BME280;34913;47.520;19.186;2023-04-27T03:10:08;100128.66;;;2.46;80.26
49102;BME280;34913;47.520;19.186;2023-04-27T03:12:34;100136.38;;;2.31;80.98
49102;BME280;34913;47.520;19.186;2023-04-27T03:15:00;100133.63;;;2.15;81.46
49102;BME280;34913;47.520;19.186;2023-04-27T03:17:26;100136.66;;;2.06;82.23
49102;BME280;34913;47.520;19.186;2023-04-27T03:19:51;100133.59;;;1.96;82.91
49102;BME280;34913;47.520;19.186;2023-04-27T03:22:17;100136.28;;;1.94;82.88
49102;BME280;34913;47.520;19.186;2023-04-27T03:24:42;100138.78;;;1.98;82.96
49102;BME280;34913;47.520;19.186;2023-04-27T03:27:08;100136.59;;;2.07;82.62
49102;BME280;34913;47.520;19.186;2023-04-27T03:29:33;100145.91;;;2.13;81.85
49102;BME280;34913;47.520;19.186;2023-04-27T03:31:59;100147.13;;;2.06;82.06
49102;BME280;34913;47.520;19.186;2023-04-27T03:34:25;100149.59;;;2.09;81.87
49102;BME280;34913;47.520;19.186;2023-04-27T03:36:50;100149.94;;;2.20;82.24
49102;BME280;34913;47.520;19.186;2023-04-27T03:39:15;100150.53;;;2.27;82.39
49102;BME280;34913;47.520;19.186;2023-04-27T03:41:41;100154.22;;;2.22;80.96
49102;BME280;34913;47.520;19.186;2023-04-27T03:44:06;100166.66;;;2.17;81.20
49102;BME280;34913;47.520;19.186;2023-04-27T03:46:32;100162.00;;;2.24;81.51
49102;BME280;34913;47.520;19.186;2023-04-27T03:48:57;100157.84;;;2.39;81.21
49102;BME280;34913;47.520;19.186;2023-04-27T03:51:23;100168.66;;;2.31;81.06
49102;BME280;34913;47.520;19.186;2023-04-27T03:53:48;100164.69;;;2.22;81.67
49102;BME280;34913;47.520;19.186;2023-04-27T03:56:14;100174.31;;;2.22;82.14
49102;BME280;34913;47.520;19.186;2023-04-27T03:58:39;100167.66;;;2.34;82.62
49102;BME280;34913;47.520;19.186;2023-04-27T04:01:05;100168.88;;;2.45;82.68
49102;BME280;34913;47.520;19.186;2023-04-27T04:03:30;100167.53;;;2.56;82.24
49102;BME280;34913;47.520;19.186;2023-04-27T04:05:56;100171.47;;;2.64;82.20
49102;BME280;34913;47.520;19.186;2023-04-27T04:08:21;100167.78;;;2.68;81.72
49102;BME280;34913;47.520;19.186;2023-04-27T04:10:47;100177.03;;;2.75;82.05
49102;BME280;34913;47.520;19.186;2023-04-27T04:13:12;100182.09;;;2.80;82.14
49102;BME280;34913;47.520;19.186;2023-04-27T04:15:37;100181.00;;;2.84;82.15
49102;BME280;34913;47.520;19.186;2023-04-27T04:18:03;100186.44;;;2.98;82.06
49102;BME280;34913;47.520;19.186;2023-04-27T04:20:28;100191.47;;;3.03;81.50
49102;BME280;34913;47.520;19.186;2023-04-27T04:22:54;100198.41;;;3.04;81.55
49102;BME280;34913;47.520;19.186;2023-04-27T04:25:19;100187.28;;;2.99;81.49
49102;BME280;34913;47.520;19.186;2023-04-27T04:27:45;100191.00;;;2.95;81.22
49102;BME280;34913;47.520;19.186;2023-04-27T04:30:12;100187.34;;;2.97;81.53
49102;BME280;34913;47.520;19.186;2023-04-27T04:32:38;100199.41;;;3.01;81.76
49102;BME280;34913;47.520;19.186;2023-04-27T04:35:05;100201.22;;;2.99;82.12
49102;BME280;34913;47.520;19.186;2023-04-27T04:37:32;100196.47;;;3.07;82.49
49102;BME280;34913;47.520;19.186;2023-04-27T04:39:58;100202.28;;;3.14;82.18
49102;BME280;34913;47.520;19.186;2023-04-27T04:42:24;100198.75;;;3.32;81.92
49102;BME280;34913;47.520;19.186;2023-04-27T04:44:49;100203.47;;;3.43;81.07
49102;BME280;34913;47.520;19.186;2023-04-27T04:47:15;100208.63;;;3.62;80.87
49102;BME280;34913;47.520;19.186;2023-04-27T04:49:41;100209.16;;;3.86;79.81
49102;BME280;34913;47.520;19.186;2023-04-27T04:52:07;100207.47;;;4.18;78.45
49102;BME280;34913;47.520;19.186;2023-04-27T04:54:32;100214.53;;;4.66;77.24
49102;BME280;34913;47.520;19.186;2023-04-27T04:56:58;100213.41;;;5.02;75.80
49102;BME280;34913;47.520;19.186;2023-04-27T04:59:25;100219.88;;;5.72;71.89
49102;BME280;34913;47.520;19.186;2023-04-27T05:01:50;100207.16;;;6.23;68.67
49102;BME280;34913;47.520;19.186;2023-04-27T05:04:19;100218.38;;;6.41;65.02
49102;BME280;34913;47.520;19.186;2023-04-27T05:06:45;100218.72;;;6.63;64.54
49102;BME280;34913;47.520;19.186;2023-04-27T05:09:11;100223.09;;;6.91;62.36
49102;BME280;34913;47.520;19.186;2023-04-27T05:11:36;100233.50;;;7.34;60.86
49102;BME280;34913;47.520;19.186;2023-04-27T05:14:02;100230.53;;;7.53;59.33
49102;BME280;34913;47.520;19.186;2023-04-27T05:16:27;100237.84;;;7.62;58.31
49102;BME280;34913;47.520;19.186;2023-04-27T05:18:52;100240.94;;;7.81;57.85
49102;BME280;34913;47.520;19.186;2023-04-27T05:21:19;100237.88;;;7.88;56.89
49102;BME280;34913;47.520;19.186;2023-04-27T05:23:46;100240.88;;;8.08;57.93
49102;BME280;34913;47.520;19.186;2023-04-27T05:26:13;100237.97;;;8.75;55.47
49102;BME280;34913;47.520;19.186;2023-04-27T05:28:39;100243.97;;;9.86;53.29
49102;BME280;34913;47.520;19.186;2023-04-27T05:31:04;100241.50;;;10.06;51.63
49102;BME280;34913;47.520;19.186;2023-04-27T05:33:30;100240.84;;;9.81;52.79
49102;BME280;34913;47.520;19.186;2023-04-27T05:35:56;100243.28;;;10.63;50.45
49102;BME280;34913;47.520;19.186;2023-04-27T05:38:21;100235.84;;;11.23;48.02
49102;BME280;34913;47.520;19.186;2023-04-27T05:40:53;100239.63;;;11.41;46.89
49102;BME280;34913;47.520;19.186;2023-04-27T05:43:18;100239.06;;;11.70;46.37
49102;BME280;34913;47.520;19.186;2023-04-27T05:45:44;100241.81;;;10.48;48.52
49102;BME280;34913;47.520;19.186;2023-04-27T05:48:09;100251.00;;;10.44;48.69
49102;BME280;34913;47.520;19.186;2023-04-27T05:50:35;100256.47;;;10.19;49.86
49102;BME280;34913;47.520;19.186;2023-04-27T05:53:00;100250.16;;;9.97;53.17
49102;BME280;34913;47.520;19.186;2023-04-27T05:55:26;100251.59;;;10.01;52.06
49102;BME280;34913;47.520;19.186;2023-04-27T05:57:51;100252.13;;;10.06;51.55
49102;BME280;34913;47.520;19.186;2023-04-27T06:00:17;100256.59;;;10.17;48.84
49102;BME280;34913;47.520;19.186;2023-04-27T06:02:43;100252.06;;;10.42;49.47
49102;BME280;34913;47.520;19.186;2023-04-27T06:05:09;100253.41;;;10.70;48.41
49102;BME280;34913;47.520;19.186;2023-04-27T06:07:34;100258.09;;;10.88;47.61
49102;BME280;34913;47.520;19.186;2023-04-27T06:10:01;100256.47;;;11.31;46.60
49102;BME280;34913;47.520;19.186;2023-04-27T06:12:27;100264.53;;;12.05;43.52
49102;BME280;34913;47.520;19.186;2023-04-27T06:14:52;100259.63;;;12.30;43.43
49102;BME280;34913;47.520;19.186;2023-04-27T06:17:17;100267.13;;;13.17;41.11
49102;BME280;34913;47.520;19.186;2023-04-27T06:19:43;100263.31;;;13.69;39.91
49102;BME280;34913;47.520;19.186;2023-04-27T06:22:09;100266.69;;;13.91;39.36
49102;BME280;34913;47.520;19.186;2023-04-27T06:24:35;100268.91;;;13.57;39.73
49102;BME280;34913;47.520;19.186;2023-04-27T06:27:01;100268.06;;;13.37;40.16
49102;BME280;34913;47.520;19.186;2023-04-27T06:29:26;100269.66;;;13.19;40.67
49102;BME280;34913;47.520;19.186;2023-04-27T06:31:52;100271.88;;;13.54;40.68
49102;BME280;34913;47.520;19.186;2023-04-27T06:34:17;100272.81;;;12.93;41.31
49102;BME280;34913;47.520;19.186;2023-04-27T06:36:42;100269.06;;;12.96;40.90
49102;BME280;34913;47.520;19.186;2023-04-27T06:39:08;100266.25;;;13.37;40.19
49102;BME280;34913;47.520;19.186;2023-04-27T06:41:33;100267.78;;;13.98;38.91
49102;BME280;34913;47.520;19.186;2023-04-27T06:43:59;100267.94;;;12.98;38.85
49102;BME280;34913;47.520;19.186;2023-04-27T06:46:24;100278.63;;;12.47;39.84
49102;BME280;34913;47.520;19.186;2023-04-27T06:48:50;100279.75;;;13.15;39.07
49102;BME280;34913;47.520;19.186;2023-04-27T06:51:16;100274.84;;;13.60;38.62
49102;BME280;34913;47.520;19.186;2023-04-27T06:53:42;100277.66;;;13.68;37.90
49102;BME280;34913;47.520;19.186;2023-04-27T06:56:10;100274.25;;;13.47;38.08
49102;BME280;34913;47.520;19.186;2023-04-27T06:58:36;100273.84;;;13.52;38.21
49102;BME280;34913;47.520;19.186;2023-04-27T07:01:02;100277.34;;;13.81;38.02
49102;BME280;34913;47.520;19.186;2023-04-27T07:03:28;100273.00;;;13.90;36.67
49102;BME280;34913;47.520;19.186;2023-04-27T07:05:54;100274.09;;;13.29;39.16
49102;BME280;34913;47.520;19.186;2023-04-27T07:08:21;100279.91;;;13.83;37.14
49102;BME280;34913;47.520;19.186;2023-04-27T07:10:47;100273.19;;;14.92;34.48
49102;BME280;34913;47.520;19.186;2023-04-27T07:13:12;100278.38;;;15.21;34.24
49102;BME280;34913;47.520;19.186;2023-04-27T07:15:38;100273.22;;;14.82;32.50
49102;BME280;34913;47.520;19.186;2023-04-27T07:18:03;100275.34;;;14.12;34.25
49102;BME280;34913;47.520;19.186;2023-04-27T07:20:29;100272.72;;;13.74;34.19
49102;BME280;34913;47.520;19.186;2023-04-27T07:22:55;100282.41;;;14.04;34.67
49102;BME280;34913;47.520;19.186;2023-04-27T07:25:20;100279.13;;;14.29;35.10
49102;BME280;34913;47.520;19.186;2023-04-27T07:27:46;100283.31;;;14.41;33.83
49102;BME280;34913;47.520;19.186;2023-04-27T07:30:12;100288.69;;;14.88;34.71
49102;BME280;34913;47.520;19.186;2023-04-27T07:32:41;100281.47;;;15.26;32.65
49102;BME280;34913;47.520;19.186;2023-04-27T07:35:08;100285.31;;;15.41;32.21
49102;BME280;34913;47.520;19.186;2023-04-27T07:37:35;100281.88;;;15.49;32.61
49102;BME280;34913;47.520;19.186;2023-04-27T07:40:01;100291.03;;;15.74;30.85
49102;BME280;34913;47.520;19.186;2023-04-27T07:42:29;100288.94;;;14.95;32.12
49102;BME280;34913;47.520;19.186;2023-04-27T07:44:55;100286.44;;;14.93;31.06
49102;BME280;34913;47.520;19.186;2023-04-27T07:47:21;100282.56;;;15.33;32.34
49102;BME280;34913;47.520;19.186;2023-04-27T07:49:47;100281.53;;;15.61;34.05
49102;BME280;34913;47.520;19.186;2023-04-27T07:52:12;100287.44;;;15.83;32.79
49102;BME280;34913;47.520;19.186;2023-04-27T07:54:39;100276.19;;;15.61;32.40
49102;BME280;34913;47.520;19.186;2023-04-27T07:57:08;100288.00;;;14.86;31.66
49102;BME280;34913;47.520;19.186;2023-04-27T07:59:36;100289.22;;;14.55;32.15
49102;BME280;34913;47.520;19.186;2023-04-27T08:02:01;100278.16;;;14.87;31.15
49102;BME280;34913;47.520;19.186;2023-04-27T08:04:27;100281.66;;;15.42;32.58
49102;BME280;34913;47.520;19.186;2023-04-27T08:06:52;100284.41;;;15.50;30.01
49102;BME280;34913;47.520;19.186;2023-04-27T08:09:18;100287.78;;;14.60;31.35
49102;BME280;34913;47.520;19.186;2023-04-27T08:11:43;100289.34;;;14.63;31.50
49102;BME280;34913;47.520;19.186;2023-04-27T08:14:09;100285.72;;;14.35;28.90
49102;BME280;34913;47.520;19.186;2023-04-27T08:16:43;100288.81;;;14.40;29.38
49102;BME280;34913;47.520;19.186;2023-04-27T08:19:09;100288.28;;;13.97;30.31
49102;BME280;34913;47.520;19.186;2023-04-27T08:21:36;100289.94;;;14.28;31.28
49102;BME280;34913;47.520;19.186;2023-04-27T08:24:03;100289.84;;;14.00;30.01
49102;BME280;34913;47.520;19.186;2023-04-27T08:26:28;100294.63;;;13.96;29.41
49102;BME280;34913;47.520;19.186;2023-04-27T08:28:54;100297.88;;;14.00;30.00
49102;BME280;34913;47.520;19.186;2023-04-27T08:31:24;100288.13;;;14.18;32.48
49102;BME280;34913;47.520;19.186;2023-04-27T08:33:50;100298.28;;;14.81;29.95
49102;BME280;34913;47.520;19.186;2023-04-27T08:36:17;100292.16;;;14.98;26.72
49102;BME280;34913;47.520;19.186;2023-04-27T08:38:42;100293.59;;;14.56;28.18
49102;BME280;34913;47.520;19.186;2023-04-27T08:41:08;100285.28;;;14.59;28.60
49102;BME280;34913;47.520;19.186;2023-04-27T08:43:34;100281.66;;;14.87;28.16
49102;BME280;34913;47.520;19.186;2023-04-27T08:46:00;100291.50;;;14.87;27.94
49102;BME280;34913;47.520;19.186;2023-04-27T08:48:26;100293.97;;;14.61;28.12
49102;BME280;34913;47.520;19.186;2023-04-27T08:50:52;100290.69;;;13.62;28.13
49102;BME280;34913;47.520;19.186;2023-04-27T08:53:21;100279.31;;;13.60;29.20
49102;BME280;34913;47.520;19.186;2023-04-27T08:55:48;100283.81;;;13.88;29.92
49102;BME280;34913;47.520;19.186;2023-04-27T08:58:14;100278.28;;;14.38;33.00
49102;BME280;34913;47.520;19.186;2023-04-27T09:00:42;100276.94;;;14.71;29.55
49102;BME280;34913;47.520;19.186;2023-04-27T09:03:26;100276.78;;;13.97;31.60
49102;BME280;34913;47.520;19.186;2023-04-27T09:05:52;100273.28;;;13.77;31.26
49102;BME280;34913;47.520;19.186;2023-04-27T09:08:17;100281.84;;;14.10;30.78
49102;BME280;34913;47.520;19.186;2023-04-27T09:10:47;100272.75;;;14.59;32.48
49102;BME280;34913;47.520;19.186;2023-04-27T09:13:13;100268.91;;;14.15;30.35
49102;BME280;34913;47.520;19.186;2023-04-27T09:15:48;100269.88;;;14.80;32.08
49102;BME280;34913;47.520;19.186;2023-04-27T09:18:21;100262.44;;;15.29;30.93
49102;BME280;34913;47.520;19.186;2023-04-27T09:20:51;100262.22;;;14.95;31.33
49102;BME280;34913;47.520;19.186;2023-04-27T09:23:35;100268.97;;;14.52;33.04
49102;BME280;34913;47.520;19.186;2023-04-27T09:26:04;100270.34;;;14.66;34.35
49102;BME280;34913;47.520;19.186;2023-04-27T09:28:36;100267.06;;;14.25;34.25
49102;BME280;34913;47.520;19.186;2023-04-27T09:31:02;100269.13;;;14.50;31.58
49102;BME280;34913;47.520;19.186;2023-04-27T09:33:31;100264.94;;;15.13;31.78
49102;BME280;34913;47.520;19.186;2023-04-27T09:36:02;100251.81;;;15.37;31.74
49102;BME280;34913;47.520;19.186;2023-04-27T09:38:28;100252.28;;;15.32;32.04
49102;BME280;34913;47.520;19.186;2023-04-27T09:40:54;100255.41;;;15.46;30.13
49102;BME280;34913;47.520;19.186;2023-04-27T09:43:20;100267.41;;;14.59;31.51
49102;BME280;34913;47.520;19.186;2023-04-27T09:45:48;100253.25;;;14.49;30.58
49102;BME280;34913;47.520;19.186;2023-04-27T09:48:14;100259.09;;;13.48;31.65
49102;BME280;34913;47.520;19.186;2023-04-27T09:50:42;100256.16;;;13.99;34.92
49102;BME280;34913;47.520;19.186;2023-04-27T09:53:11;100249.91;;;14.74;32.13
49102;BME280;34913;47.520;19.186;2023-04-27T10:09:12;100227.50;;;16.02;29.84
49102;BME280;34913;47.520;19.186;2023-04-27T10:11:39;100223.31;;;15.99;30.14
49102;BME280;34913;47.520;19.186;2023-04-27T10:14:06;100220.94;;;16.48;29.19
49102;BME280;34913;47.520;19.186;2023-04-27T10:16:43;100225.00;;;16.86;28.32
49102;BME280;34913;47.520;19.186;2023-04-27T10:19:10;100221.47;;;17.44;30.18
49102;BME280;34913;47.520;19.186;2023-04-27T10:21:36;100218.66;;;17.54;27.42
49102;BME280;34913;47.520;19.186;2023-04-27T10:24:07;100218.88;;;17.02;27.56
49102;BME280;34913;47.520;19.186;2023-04-27T10:26:33;100227.41;;;16.11;29.09
49102;BME280;34913;47.520;19.186;2023-04-27T10:29:06;100226.53;;;15.85;28.80
49102;BME280;34913;47.520;19.186;2023-04-27T10:31:32;100220.78;;;16.76;28.42
49102;BME280;34913;47.520;19.186;2023-04-27T10:34:14;100224.13;;;17.28;28.85
49102;BME280;34913;47.520;19.186;2023-04-27T10:36:40;100221.22;;;17.13;29.13
49102;BME280;34913;47.520;19.186;2023-04-27T10:39:16;100220.94;;;17.24;29.42
49102;BME280;34913;47.520;19.186;2023-04-27T10:41:55;100224.22;;;17.77;28.54
49102;BME280;34913;47.520;19.186;2023-04-27T10:44:28;100228.00;;;17.42;29.04
49102;BME280;34913;47.520;19.186;2023-04-27T10:46:56;100221.16;;;17.55;28.21
49102;BME280;34913;47.520;19.186;2023-04-27T10:49:22;100220.63;;;17.36;28.40
49102;BME280;34913;47.520;19.186;2023-04-27T10:51:49;100226.00;;;17.44;27.88
49102;BME280;34913;47.520;19.186;2023-04-27T10:54:15;100216.97;;;16.86;27.69
49102;BME280;34913;47.520;19.186;2023-04-27T10:56:41;100220.44;;;16.70;27.37
49102;BME280;34913;47.520;19.186;2023-04-27T10:59:07;100213.16;;;17.05;30.60
49102;BME280;34913;47.520;19.186;2023-04-27T11:01:33;100220.75;;;17.18;29.15
49102;BME280;34913;47.520;19.186;2023-04-27T11:04:00;100210.38;;;17.23;28.67
49102;BME280;34913;47.520;19.186;2023-04-27T11:06:27;100214.19;;;17.12;28.88
49102;BME280;34913;47.520;19.186;2023-04-27T11:08:53;100211.88;;;17.25;27.80
49102;BME280;34913;47.520;19.186;2023-04-27T11:11:19;100215.31;;;18.01;28.99
49102;BME280;34913;47.520;19.186;2023-04-27T11:13:47;100203.03;;;17.41;26.21
49102;BME280;34913;47.520;19.186;2023-04-27T11:16:14;100201.53;;;17.47;28.00
49102;BME280;34913;47.520;19.186;2023-04-27T11:18:41;100196.34;;;17.62;28.89
49102;BME280;34913;47.520;19.186;2023-04-27T11:21:11;100193.78;;;17.36;27.76
49102;BME280;34913;47.520;19.186;2023-04-27T11:23:37;100193.44;;;17.14;28.21
49102;BME280;34913;47.520;19.186;2023-04-27T11:28:42;100201.94;;;16.59;29.36
49102;BME280;34913;47.520;19.186;2023-04-27T11:31:08;100194.81;;;16.50;27.94
49102;BME280;34913;47.520;19.186;2023-04-27T11:33:34;100204.47;;;16.09;29.16
49102;BME280;34913;47.520;19.186;2023-04-27T11:35:59;100207.19;;;16.43;29.66
49102;BME280;34913;47.520;19.186;2023-04-27T11:38:25;100198.38;;;16.85;28.93
49102;BME280;34913;47.520;19.186;2023-04-27T11:41:06;100192.88;;;16.94;27.99
49102;BME280;34913;47.520;19.186;2023-04-27T11:43:32;100191.91;;;17.20;31.25
49102;BME280;34913;47.520;19.186;2023-04-27T11:46:01;100192.09;;;17.18;27.92
49102;BME280;34913;47.520;19.186;2023-04-27T11:48:27;100187.28;;;17.46;28.10
49102;BME280;34913;47.520;19.186;2023-04-27T11:50:56;100189.63;;;17.49;29.97
49102;BME280;34913;47.520;19.186;2023-04-27T11:53:30;100194.78;;;17.26;28.21
49102;BME280;34913;47.520;19.186;2023-04-27T11:56:02;100191.63;;;17.47;26.36
49102;BME280;34913;47.520;19.186;2023-04-27T11:58:34;100195.97;;;17.24;28.37
49102;BME280;34913;47.520;19.186;2023-04-27T12:01:00;100201.75;;;16.61;28.47
49102;BME280;34913;47.520;19.186;2023-04-27T12:03:27;100192.75;;;16.10;28.58
49102;BME280;34913;47.520;19.186;2023-04-27T12:05:53;100193.72;;;15.47;30.73
49102;BME280;34913;47.520;19.186;2023-04-27T12:08:19;100188.47;;;15.55;30.83
49102;BME280;34913;47.520;19.186;2023-04-27T12:10:45;100192.28;;;16.14;29.37
49102;BME280;34913;47.520;19.186;2023-04-27T12:13:11;100186.44;;;16.45;30.81
49102;BME280;34913;47.520;19.186;2023-04-27T12:15:37;100199.41;;;16.66;29.29
49102;BME280;34913;47.520;19.186;2023-04-27T12:18:03;100192.94;;;16.42;28.71
49102;BME280;34913;47.520;19.186;2023-04-27T12:20:29;100187.44;;;16.44;29.27
49102;BME280;34913;47.520;19.186;2023-04-27T12:22:55;100182.72;;;16.72;29.53
49102;BME280;34913;47.520;19.186;2023-04-27T12:25:21;100177.56;;;16.44;31.15
49102;BME280;34913;47.520;19.186;2023-04-27T12:27:46;100189.63;;;16.48;28.43
49102;BME280;34913;47.520;19.186;2023-04-27T12:30:13;100184.34;;;16.31;31.29
49102;BME280;34913;47.520;19.186;2023-04-27T12:32:39;100191.63;;;16.12;31.87
49102;BME280;34913;47.520;19.186;2023-04-27T12:35:06;100180.53;;;16.07;31.07
49102;BME280;34913;47.520;19.186;2023-04-27T12:37:32;100185.25;;;15.52;30.97
49102;BME280;34913;47.520;19.186;2023-04-27T12:39:57;100188.88;;;16.04;29.74
49102;BME280;34913;47.520;19.186;2023-04-27T12:42:23;100186.28;;;16.81;29.67
49102;BME280;34913;47.520;19.186;2023-04-27T12:44:50;100175.97;;;17.10;29.64
49102;BME280;34913;47.520;19.186;2023-04-27T12:47:20;100186.06;;;17.24;30.07
49102;BME280;34913;47.520;19.186;2023-04-27T12:49:46;100178.06;;;16.82;29.45
49102;BME280;34913;47.520;19.186;2023-04-27T12:52:12;100181.78;;;16.89;30.19
49102;BME280;34913;47.520;19.186;2023-04-27T12:54:38;100188.59;;;17.42;29.75
49102;BME280;34913;47.520;19.186;2023-04-27T12:57:03;100184.22;;;17.17;29.78